createdAt,value
2018-03-31T00:00:40.695Z,12.17
2018-03-31T00:03:11.588Z,11.53
2018-03-31T00:05:42.483Z,12.50
2018-03-31T00:08:13.535Z,12.83
2018-03-31T00:10:44.956Z,12.50
2018-03-31T00:13:15.992Z,12.57
2018-03-31T00:15:46.900Z,15.93
2018-03-31T00:18:17.871Z,13.03
2018-03-31T00:20:48.688Z,14.00
2018-03-31T00:23:20.321Z,13.77
2018-03-31T00:25:51.792Z,13.07
2018-03-31T00:28:23.235Z,13.43
2018-03-31T00:30:54.228Z,13.17
2018-03-31T00:33:25.597Z,12.33
2018-03-31T00:35:56.653Z,14.00
2018-03-31T00:38:27.607Z,12.73
2018-03-31T00:40:58.383Z,13.33
2018-03-31T00:43:29.171Z,12.57
2018-03-31T00:45:59.902Z,13.90
2018-03-31T00:48:30.739Z,11.93
2018-03-31T00:51:01.528Z,12.63
2018-03-31T00:53:32.327Z,12.20
2018-03-31T00:56:03.401Z,12.80
2018-03-31T00:58:34.237Z,11.80
2018-03-31T01:01:05.294Z,13.73
2018-03-31T01:03:36.384Z,11.80
2018-03-31T01:06:07.149Z,10.93
2018-03-31T01:08:38.015Z,12.13
2018-03-31T01:11:08.871Z,12.30
2018-03-31T01:13:39.858Z,13.00
2018-03-31T01:16:10.791Z,11.67
2018-03-31T01:18:42.116Z,11.17
2018-03-31T01:21:13.426Z,11.77
2018-03-31T01:23:44.215Z,11.87
2018-03-31T01:26:15.002Z,11.57
2018-03-31T01:28:46.140Z,10.87
2018-03-31T01:31:17.092Z,11.30
2018-03-31T01:33:47.983Z,11.87
2018-03-31T01:36:18.838Z,11.20
2018-03-31T01:38:49.853Z,10.83
2018-03-31T01:41:20.973Z,10.93
2018-03-31T01:43:51.831Z,10.97
2018-03-31T01:46:22.693Z,10.83
2018-03-31T01:48:54.273Z,11.63
2018-03-31T01:51:25.213Z,11.97
2018-03-31T01:53:56.055Z,12.17
2018-03-31T01:56:26.801Z,11.50
2018-03-31T01:58:57.665Z,11.60
2018-03-31T02:01:28.513Z,12.53
2018-03-31T02:03:59.699Z,12.97
2018-03-31T02:06:31.098Z,12.70
2018-03-31T02:09:02.636Z,12.93
2018-03-31T02:11:38.350Z,11.47
2018-03-31T02:16:44.932Z,12.23
2018-03-31T02:19:19.823Z,12.50
2018-03-31T02:21:51.640Z,13.00
2018-03-31T02:24:26.750Z,14.07
2018-03-31T02:27:02.462Z,14.03
2018-03-31T02:29:34.114Z,12.03
2018-03-31T02:32:05.554Z,11.47
2018-03-31T02:34:37.100Z,12.50
2018-03-31T02:42:23.197Z,12.60
2018-03-31T02:44:54.393Z,12.13
2018-03-31T02:47:25.512Z,11.30
2018-03-31T02:49:59.095Z,11.73
2018-03-31T02:52:34.594Z,11.37
2018-03-31T02:55:05.726Z,13.13
2018-03-31T02:57:37.331Z,12.83
2018-03-31T03:00:08.951Z,11.80
2018-03-31T03:02:41.035Z,12.67
2018-03-31T03:05:12.963Z,13.77
2018-03-31T03:07:44.781Z,13.57
2018-03-31T03:10:16.203Z,14.13
2018-03-31T03:12:49.345Z,13.30
2018-03-31T03:15:21.184Z,13.87
2018-03-31T03:17:58.102Z,13.10
2018-03-31T03:20:28.855Z,13.53
2018-03-31T03:23:00.499Z,13.77
2018-03-31T03:25:31.647Z,12.87
2018-03-31T03:28:02.366Z,11.97
2018-03-31T03:30:33.395Z,12.57
2018-03-31T03:33:03.957Z,15.00
2018-03-31T03:35:35.281Z,14.80
2018-03-31T03:38:05.896Z,15.40
2018-03-31T03:40:36.626Z,15.03
2018-03-31T03:43:07.242Z,14.00
2018-03-31T03:45:38.090Z,17.23
2018-03-31T03:48:08.715Z,15.37
2018-03-31T03:50:39.391Z,15.13
2018-03-31T03:53:09.938Z,15.37
2018-03-31T03:55:40.893Z,14.73
2018-03-31T03:58:11.544Z,14.37
2018-03-31T04:00:42.695Z,13.13
2018-03-31T04:03:13.577Z,12.53
2018-03-31T04:05:44.144Z,13.17
2018-03-31T04:08:14.691Z,13.03
2018-03-31T04:10:45.510Z,12.93
2018-03-31T04:13:16.103Z,13.67
2018-03-31T04:15:46.881Z,14.83
2018-03-31T04:18:17.726Z,14.00
2018-03-31T04:20:48.288Z,13.63
2018-03-31T04:23:19.584Z,13.47
2018-03-31T04:25:50.333Z,12.40
2018-03-31T04:28:21.268Z,12.83
2018-03-31T04:30:52.028Z,12.40
2018-03-31T04:33:22.803Z,12.63
2018-03-31T04:35:53.471Z,13.53
2018-03-31T04:38:25.157Z,13.50
2018-03-31T04:40:55.727Z,13.80
2018-03-31T04:43:26.402Z,17.70
2018-03-31T04:45:56.927Z,15.33
2018-03-31T04:48:27.679Z,15.60
2018-03-31T04:50:59.764Z,15.13
2018-03-31T04:53:30.398Z,16.23
2018-03-31T04:56:01.038Z,16.13
2018-03-31T04:58:31.808Z,16.43
2018-03-31T05:01:02.611Z,16.90
2018-03-31T05:03:33.978Z,14.40
2018-03-31T05:06:05.283Z,14.30
2018-03-31T05:08:36.259Z,15.13
2018-03-31T05:11:07.173Z,14.20
2018-03-31T05:13:38.143Z,15.80
2018-03-31T05:16:08.893Z,14.40
2018-03-31T05:18:39.614Z,15.67
2018-03-31T05:21:10.518Z,15.07
2018-03-31T05:23:41.092Z,15.83
2018-03-31T05:26:12.426Z,15.63
2018-03-31T05:28:43.054Z,15.67
2018-03-31T05:31:13.619Z,15.60
2018-03-31T05:33:44.195Z,16.10
2018-03-31T05:36:14.927Z,15.63
2018-03-31T05:38:45.470Z,17.00
2018-03-31T05:41:16.493Z,16.93
2018-03-31T05:43:47.307Z,15.20
2018-03-31T05:46:17.937Z,15.73
2018-03-31T05:48:48.566Z,15.47
2018-03-31T05:51:19.152Z,17.07
2018-03-31T05:53:49.863Z,16.57
2018-03-31T05:56:20.490Z,16.30
2018-03-31T05:58:51.075Z,14.80
2018-03-31T06:01:21.710Z,14.80
2018-03-31T06:03:52.551Z,16.07
2018-03-31T06:06:23.154Z,17.00
2018-03-31T06:08:54.119Z,18.43
2018-03-31T06:11:24.678Z,17.67
2018-03-31T06:13:55.764Z,18.33
2018-03-31T06:16:26.346Z,18.30
2018-03-31T06:18:57.031Z,17.90
2018-03-31T06:21:27.629Z,17.23
2018-03-31T06:23:58.227Z,16.57
2018-03-31T06:26:28.757Z,17.73
2018-03-31T06:28:59.351Z,19.43
2018-03-31T06:31:29.985Z,17.87
2018-03-31T06:34:04.545Z,19.17
2018-03-31T06:36:35.931Z,19.17
2018-03-31T06:39:07.772Z,18.73
2018-03-31T06:41:48.945Z,17.20
2018-03-31T06:44:20.525Z,17.10
2018-03-31T06:46:51.659Z,19.57
2018-03-31T06:49:22.485Z,19.23
2018-03-31T06:51:53.192Z,19.83
2018-03-31T06:54:23.813Z,19.63
2018-03-31T06:56:55.296Z,19.50
2018-03-31T06:59:25.874Z,18.13
2018-03-31T07:01:56.648Z,20.00
2018-03-31T07:04:27.521Z,18.80
2018-03-31T07:06:58.377Z,17.67
2018-03-31T07:09:29.559Z,19.10
2018-03-31T07:12:00.618Z,20.90
2018-03-31T07:14:33.488Z,20.70
2018-03-31T07:17:04.836Z,23.73
2018-03-31T07:19:35.520Z,22.73
2018-03-31T07:22:06.454Z,22.17
2018-03-31T07:24:37.860Z,19.70
2018-03-31T07:27:12.590Z,22.17
2018-03-31T07:29:43.785Z,25.73
2018-03-31T07:32:17.445Z,22.47
2018-03-31T07:34:48.832Z,21.43
2018-03-31T07:37:19.944Z,24.83
2018-03-31T07:39:50.701Z,23.90
2018-03-31T07:42:23.302Z,21.53
2018-03-31T07:44:54.901Z,22.00
2018-03-31T07:47:29.247Z,22.53
2018-03-31T07:49:59.824Z,21.63
2018-03-31T07:52:53.653Z,21.83
2018-03-31T07:55:31.525Z,19.00
2018-03-31T07:58:05.399Z,22.03
2018-03-31T08:00:39.097Z,20.43
2018-03-31T08:03:10.640Z,25.90
2018-03-31T08:05:46.340Z,23.20
2018-03-31T08:11:03.589Z,29.53
2018-03-31T08:13:35.694Z,30.53
2018-03-31T08:16:07.453Z,27.67
2018-03-31T08:18:38.340Z,28.20
2018-03-31T08:21:09.853Z,25.63
2018-03-31T08:23:41.547Z,29.90
2018-03-31T08:26:12.930Z,26.00
2018-03-31T08:28:45.217Z,27.83
2018-03-31T08:31:16.450Z,27.17
2018-03-31T08:33:49.492Z,26.83
2018-03-31T08:36:23.540Z,29.63
2018-03-31T08:38:56.798Z,28.20
2018-03-31T08:41:28.588Z,26.47
2018-03-31T08:44:00.406Z,28.07
2018-03-31T08:46:38.574Z,23.83
2018-03-31T08:51:48.729Z,24.57
2018-03-31T08:54:20.159Z,24.50
2018-03-31T08:56:59.240Z,23.20
2018-03-31T08:59:30.160Z,26.20
2018-03-31T09:02:00.829Z,23.57
2018-03-31T09:04:38.448Z,23.60
2018-03-31T09:07:09.908Z,23.63
2018-03-31T09:09:40.820Z,23.13
2018-03-31T09:12:11.990Z,23.23
2018-03-31T09:14:43.148Z,22.20
2018-03-31T09:17:13.983Z,23.47
2018-03-31T09:19:46.460Z,22.67
2018-03-31T09:22:21.189Z,20.30
2018-03-31T09:24:57.879Z,19.90
2018-03-31T09:27:31.213Z,18.33
2018-03-31T09:30:05.560Z,17.33
2018-03-31T09:32:44.916Z,17.07
2018-03-31T09:35:19.183Z,14.77
2018-03-31T09:37:53.931Z,14.83
2018-03-31T09:40:24.584Z,13.43
2018-03-31T09:42:55.239Z,12.00
2018-03-31T09:45:26.561Z,11.37
2018-03-31T09:47:57.208Z,12.23
2018-03-31T09:51:17.207Z,11.00
2018-03-31T09:53:50.398Z,11.13
2018-03-31T09:56:23.825Z,10.13
2018-03-31T09:58:55.331Z,11.53
2018-03-31T10:01:27.472Z,9.90
2018-03-31T10:03:59.073Z,11.83
2018-03-31T10:06:31.018Z,10.77
2018-03-31T10:09:04.185Z,10.73
2018-03-31T10:11:36.267Z,11.70
2018-03-31T10:14:08.651Z,11.97
2018-03-31T10:16:41.450Z,11.57
2018-03-31T10:19:13.458Z,12.33
2018-03-31T10:21:45.464Z,12.07
2018-03-31T10:24:17.170Z,12.63
2018-03-31T10:26:48.732Z,12.77
2018-03-31T10:29:20.355Z,13.27
2018-03-31T10:31:51.769Z,12.97
2018-03-31T10:34:25.504Z,12.57
2018-03-31T10:36:56.958Z,12.70
2018-03-31T10:39:29.244Z,12.90
2018-03-31T10:42:01.162Z,14.43
2018-03-31T10:44:32.973Z,14.90
2018-03-31T10:47:10.065Z,13.63
2018-03-31T10:49:42.154Z,13.67
2018-03-31T10:52:14.041Z,14.20
2018-03-31T10:54:51.264Z,16.83
2018-03-31T10:57:22.925Z,16.07
2018-03-31T10:59:56.777Z,17.10
2018-03-31T11:02:30.174Z,13.43
2018-03-31T11:05:02.746Z,14.90
2018-03-31T11:07:34.714Z,13.70
2018-03-31T11:10:09.595Z,13.03
2018-03-31T11:12:42.020Z,12.20
2018-03-31T11:15:14.174Z,11.93
2018-03-31T11:17:46.062Z,10.97
2018-03-31T11:20:17.792Z,16.70
2018-03-31T11:22:53.507Z,12.53
2018-03-31T11:25:25.745Z,13.07
2018-03-31T11:27:57.414Z,12.03
2018-03-31T11:30:29.545Z,12.00
2018-03-31T11:33:06.219Z,12.10
2018-03-31T11:35:38.107Z,15.33
2018-03-31T11:38:10.044Z,13.27
2018-03-31T11:40:44.646Z,12.23
2018-03-31T11:43:18.163Z,12.10
2018-03-31T11:45:52.516Z,12.73
2018-03-31T11:48:24.114Z,12.60
2018-03-31T11:50:56.610Z,13.23
2018-03-31T11:53:28.605Z,14.27
2018-03-31T11:56:00.053Z,13.20
2018-03-31T11:58:32.204Z,12.57
2018-03-31T12:01:03.762Z,12.83
2018-03-31T12:03:37.760Z,12.10
2018-03-31T12:06:10.038Z,14.37
2018-03-31T12:08:41.641Z,15.73
2018-03-31T12:11:14.513Z,18.00
2018-03-31T12:13:54.070Z,18.13
2018-03-31T12:16:32.255Z,18.77
2018-03-31T12:19:03.823Z,18.47
2018-03-31T12:21:36.581Z,19.23
2018-03-31T12:24:08.635Z,18.30
2018-03-31T12:26:40.763Z,18.07
2018-03-31T12:29:15.893Z,16.77
2018-03-31T12:31:48.948Z,16.60
2018-03-31T12:34:23.667Z,15.87
2018-03-31T12:36:55.705Z,15.30
2018-03-31T12:39:27.302Z,16.63
2018-03-31T12:42:00.076Z,15.50
2018-03-31T12:44:32.895Z,16.20
2018-03-31T12:47:05.279Z,15.40
2018-03-31T12:49:37.134Z,14.17
2018-03-31T12:52:10.714Z,14.97
2018-03-31T12:54:46.802Z,14.63
2018-03-31T12:57:19.012Z,14.20
2018-03-31T12:59:51.889Z,14.40
2018-03-31T13:02:39.316Z,15.20
2018-03-31T13:05:31.557Z,14.43
2018-03-31T13:08:08.908Z,13.00
2018-03-31T13:10:41.641Z,14.37
2018-03-31T13:13:14.270Z,16.20
2018-03-31T13:15:46.898Z,16.13
2018-03-31T13:18:18.450Z,15.83
2018-03-31T13:20:50.370Z,14.03
2018-03-31T13:23:21.986Z,15.40
2018-03-31T13:25:54.034Z,14.50
2018-03-31T13:28:26.904Z,16.93
2018-03-31T13:30:58.594Z,18.27
2018-03-31T13:33:30.892Z,17.53
2018-03-31T13:36:04.664Z,17.60
2018-03-31T13:38:39.459Z,17.60
2018-03-31T13:41:12.092Z,17.33
2018-03-31T13:43:43.746Z,17.53
2018-03-31T13:46:15.367Z,20.17
2018-03-31T13:48:48.344Z,21.13
2018-03-31T13:51:20.298Z,31.57
2018-03-31T13:53:52.192Z,23.47
2018-03-31T13:56:29.304Z,19.37
2018-03-31T13:59:03.471Z,18.13
2018-03-31T14:01:36.878Z,17.73
2018-03-31T14:04:08.874Z,15.40
2018-03-31T14:06:42.019Z,18.10
2018-03-31T14:09:15.252Z,16.93
2018-03-31T14:11:49.710Z,17.60
2018-03-31T14:14:24.216Z,16.90
2018-03-31T14:16:58.137Z,16.43
2018-03-31T14:19:31.413Z,19.70
2018-03-31T14:22:05.598Z,18.77
2018-03-31T14:24:39.303Z,17.43
2018-03-31T14:27:13.086Z,16.50
2018-03-31T14:29:46.047Z,18.00
2018-03-31T14:32:18.043Z,19.63
2018-03-31T14:35:01.303Z,18.23
2018-03-31T14:37:39.340Z,16.57
2018-03-31T14:40:21.393Z,18.70
2018-03-31T14:43:01.502Z,18.03
2018-03-31T14:45:34.727Z,17.77
2018-03-31T14:48:10.940Z,16.83
2018-03-31T14:50:50.810Z,21.27
2018-03-31T18:03:21.670Z,19.47
2018-03-31T18:05:56.051Z,24.47
2018-03-31T18:08:27.798Z,16.93
2018-03-31T18:11:01.369Z,23.73
2018-03-31T18:13:33.245Z,21.60
2018-03-31T18:16:05.235Z,20.00
2018-03-31T18:18:37.580Z,17.37
2018-03-31T18:21:09.488Z,20.63
2018-03-31T18:23:42.080Z,16.63
2018-03-31T18:26:14.352Z,16.80
2018-03-31T18:28:46.051Z,17.97
2018-03-31T18:31:18.010Z,18.60
2018-03-31T18:36:04.057Z,19.87
2018-03-31T18:38:35.735Z,24.57
2018-03-31T18:41:07.946Z,31.50
2018-03-31T18:43:39.944Z,31.80
2018-03-31T18:46:11.426Z,24.07
2018-03-31T18:48:43.305Z,28.57
2018-03-31T18:51:15.748Z,24.83
2018-03-31T18:53:47.598Z,25.30
2018-03-31T18:56:19.257Z,27.77
2018-03-31T18:58:50.711Z,29.90
2018-03-31T19:01:22.670Z,32.87
2018-03-31T19:03:55.954Z,29.33
2018-03-31T19:06:28.182Z,28.73
2018-03-31T19:09:00.241Z,24.10
2018-03-31T19:11:31.833Z,23.03
2018-03-31T19:14:03.418Z,21.87
2018-03-31T19:16:39.332Z,26.40
2018-03-31T19:19:11.368Z,20.20
2018-03-31T19:21:42.940Z,21.67
2018-03-31T19:24:14.771Z,23.60
2018-03-31T19:26:46.673Z,23.37
2018-03-31T19:29:18.183Z,21.60
2018-03-31T19:31:50.440Z,24.07
2018-03-31T19:34:22.327Z,23.37
2018-03-31T19:36:54.108Z,20.07
2018-03-31T19:39:35.361Z,20.97
2018-03-31T19:42:11.935Z,23.90
2018-03-31T19:44:44.763Z,22.80
2018-03-31T19:47:16.824Z,26.50
2018-03-31T19:49:48.836Z,21.43
2018-03-31T19:52:20.767Z,21.63
2018-03-31T19:54:53.335Z,19.90
2018-03-31T19:57:24.865Z,19.97
2018-03-31T19:59:56.592Z,19.20
2018-03-31T20:02:28.051Z,20.27
2018-03-31T20:04:59.993Z,18.47
2018-03-31T20:07:32.640Z,20.67
2018-03-31T20:10:07.100Z,19.67
2018-03-31T20:12:38.883Z,18.13
2018-03-31T20:15:12.432Z,18.27
2018-03-31T20:17:44.187Z,17.30
2018-03-31T20:20:16.271Z,17.60
2018-03-31T20:22:48.111Z,19.57
2018-03-31T20:25:19.710Z,18.53
2018-03-31T20:27:51.147Z,20.37
2018-03-31T20:30:22.697Z,19.17
2018-03-31T20:32:54.458Z,19.33
2018-03-31T20:35:26.299Z,20.63
2018-03-31T20:37:58.220Z,20.93
2018-03-31T20:40:29.817Z,21.57
2018-03-31T20:43:03.942Z,20.70
2018-03-31T20:45:36.295Z,23.63
2018-03-31T20:48:07.809Z,22.17
2018-03-31T20:50:39.940Z,23.70
2018-03-31T20:53:11.424Z,22.03
2018-03-31T20:55:42.943Z,25.67
2018-03-31T20:58:14.396Z,23.47
2018-03-31T21:00:45.908Z,26.67
2018-03-31T21:03:17.419Z,29.20
2018-03-31T21:05:49.166Z,31.27
2018-03-31T21:08:21.298Z,31.03
2018-03-31T21:10:52.996Z,35.27
2018-03-31T21:13:25.133Z,36.40
2018-03-31T21:15:56.815Z,30.57
2018-03-31T21:18:28.270Z,33.07
2018-03-31T21:21:00.116Z,28.00
2018-03-31T21:23:32.698Z,28.63
2018-03-31T21:26:09.004Z,32.07
2018-03-31T21:28:40.507Z,27.60
2018-03-31T21:31:11.939Z,26.50
2018-03-31T21:33:43.643Z,29.50
2018-03-31T21:36:15.298Z,27.37
2018-03-31T21:38:46.988Z,24.93
2018-03-31T21:41:18.816Z,27.30
2018-03-31T21:43:50.290Z,25.53
2018-03-31T21:46:21.731Z,22.43
2018-03-31T21:48:53.178Z,22.37
2018-03-31T21:51:25.258Z,24.47
2018-03-31T21:53:56.696Z,25.50
2018-03-31T21:56:28.482Z,22.57
2018-03-31T21:59:00.045Z,22.87
2018-03-31T22:01:31.725Z,22.73
2018-03-31T22:04:03.180Z,23.27
2018-03-31T22:06:36.063Z,24.73
2018-03-31T22:09:07.832Z,22.40
2018-03-31T22:11:39.383Z,21.43
2018-03-31T22:16:22.022Z,22.53
2018-03-31T22:18:54.891Z,24.20
2018-03-31T22:21:26.673Z,21.87
2018-03-31T22:24:01.009Z,22.20
2018-03-31T22:26:32.917Z,22.23
2018-03-31T22:29:04.426Z,20.87
2018-03-31T22:31:36.621Z,24.10
2018-03-31T22:34:08.214Z,22.93
2018-03-31T22:36:39.783Z,20.73
2018-03-31T22:39:12.112Z,21.30
2018-03-31T22:41:43.766Z,21.90
2018-03-31T22:44:16.786Z,22.60
2018-03-31T22:46:48.293Z,20.73
2018-03-31T22:49:20.074Z,24.30
2018-03-31T22:51:51.551Z,22.97
2018-03-31T22:54:23.586Z,21.03
2018-03-31T22:56:56.074Z,21.63
2018-03-31T22:59:27.502Z,20.17
2018-03-31T23:01:58.856Z,21.27
2018-03-31T23:04:30.623Z,22.90
2018-03-31T23:07:02.355Z,20.47
2018-03-31T23:09:34.269Z,20.63
2018-03-31T23:12:06.072Z,19.80
2018-03-31T23:14:38.113Z,18.60
2018-03-31T23:17:10.118Z,19.33
2018-03-31T23:19:41.841Z,22.23
2018-03-31T23:22:13.600Z,23.33
2018-03-31T23:24:50.608Z,23.13
2018-03-31T23:27:22.446Z,21.63
2018-03-31T23:29:54.229Z,23.03
2018-03-31T23:32:26.198Z,22.40
2018-03-31T23:35:00.874Z,20.57
2018-03-31T23:37:32.674Z,26.60
2018-03-31T23:40:05.583Z,21.13
2018-03-31T23:42:37.024Z,22.20
2018-03-31T23:45:08.544Z,19.40
2018-03-31T23:47:41.423Z,21.33
2018-03-31T23:50:13.248Z,20.30
2018-03-31T23:52:45.000Z,21.43
2018-03-31T23:55:16.441Z,23.67
2018-03-31T23:57:48.058Z,21.87
